sensor_id;sensor_type;location;lat;lon;timestamp;P1;durP1;ratioP1;P2;durP2;ratioP2
46282;SDS011;32017;43.700;11.820;2023-07-20T00:00:18;6.18;;;2.25;;
46282;SDS011;32017;43.700;11.820;2023-07-20T00:02:38;4.63;;;2.67;;
46282;SDS011;32017;43.700;11.820;2023-07-20T00:04:58;5.85;;;1.30;;
46282;SDS011;32017;43.700;11.820;2023-07-20T00:07:18;4.93;;;1.70;;
46282;SDS011;32017;43.700;11.820;2023-07-20T00:09:38;4.20;;;2.05;;
46282;SDS011;32017;43.700;11.820;2023-07-20T00:11:58;6.75;;;2.10;;
46282;SDS011;32017;43.700;11.820;2023-07-20T00:14:19;7.38;;;1.88;;
46282;SDS011;32017;43.700;11.820;2023-07-20T00:16:39;7.85;;;2.08;;
46282;SDS011;32017;43.700;11.820;2023-07-20T00:18:59;4.72;;;1.88;;
46282;SDS011;32017;43.700;11.820;2023-07-20T00:21:19;4.65;;;2.08;;
46282;SDS011;32017;43.700;11.820;2023-07-20T00:23:39;2.80;;;1.63;;
46282;SDS011;32017;43.700;11.820;2023-07-20T00:25:59;3.08;;;2.42;;
46282;SDS011;32017;43.700;11.820;2023-07-20T00:28:19;8.85;;;2.08;;
46282;SDS011;32017;43.700;11.820;2023-07-20T00:30:39;7.38;;;1.98;;
46282;SDS011;32017;43.700;11.820;2023-07-20T00:33:00;9.63;;;2.67;;
46282;SDS011;32017;43.700;11.820;2023-07-20T00:35:20;4.25;;;2.15;;
46282;SDS011;32017;43.700;11.820;2023-07-20T00:37:40;9.20;;;2.58;;
46282;SDS011;32017;43.700;11.820;2023-07-20T00:40:00;5.20;;;2.92;;
46282;SDS011;32017;43.700;11.820;2023-07-20T00:44:43;5.68;;;2.10;;
46282;SDS011;32017;43.700;11.820;2023-07-20T00:47:03;14.05;;;2.40;;
46282;SDS011;32017;43.700;11.820;2023-07-20T00:49:23;6.47;;;2.10;;
46282;SDS011;32017;43.700;11.820;2023-07-20T00:51:44;7.32;;;2.13;;
46282;SDS011;32017;43.700;11.820;2023-07-20T00:54:04;6.10;;;2.42;;
46282;SDS011;32017;43.700;11.820;2023-07-20T00:56:24;2.95;;;2.25;;
46282;SDS011;32017;43.700;11.820;2023-07-20T00:58:45;5.90;;;2.33;;
46282;SDS011;32017;43.700;11.820;2023-07-20T01:01:06;7.38;;;2.42;;
46282;SDS011;32017;43.700;11.820;2023-07-20T01:06:14;3.72;;;2.60;;
46282;SDS011;32017;43.700;11.820;2023-07-20T01:08:33;6.88;;;2.88;;
46282;SDS011;32017;43.700;11.820;2023-07-20T01:11:17;5.97;;;2.40;;
46282;SDS011;32017;43.700;11.820;2023-07-20T01:13:49;2.50;;;2.17;;
46282;SDS011;32017;43.700;11.820;2023-07-20T01:16:09;10.43;;;2.53;;
46282;SDS011;32017;43.700;11.820;2023-07-20T01:18:29;6.80;;;2.28;;
46282;SDS011;32017;43.700;11.820;2023-07-20T01:20:49;11.52;;;2.67;;
46282;SDS011;32017;43.700;11.820;2023-07-20T01:31:32;5.93;;;2.70;;
46282;SDS011;32017;43.700;11.820;2023-07-20T01:33:55;4.18;;;2.50;;
46282;SDS011;32017;43.700;11.820;2023-07-20T01:36:17;11.35;;;3.42;;
46282;SDS011;32017;43.700;11.820;2023-07-20T01:38:39;6.43;;;1.73;;
46282;SDS011;32017;43.700;11.820;2023-07-20T01:41:01;3.63;;;2.08;;
46282;SDS011;32017;43.700;11.820;2023-07-20T01:43:22;7.78;;;2.67;;
46282;SDS011;32017;43.700;11.820;2023-07-20T01:45:42;12.45;;;2.83;;
46282;SDS011;32017;43.700;11.820;2023-07-20T01:48:02;5.80;;;2.50;;
46282;SDS011;32017;43.700;11.820;2023-07-20T01:50:23;5.43;;;2.17;;
46282;SDS011;32017;43.700;11.820;2023-07-20T01:52:43;7.20;;;3.33;;
46282;SDS011;32017;43.700;11.820;2023-07-20T01:55:04;3.72;;;1.80;;
46282;SDS011;32017;43.700;11.820;2023-07-20T01:57:24;4.53;;;1.83;;
46282;SDS011;32017;43.700;11.820;2023-07-20T01:59:45;5.78;;;2.85;;
46282;SDS011;32017;43.700;11.820;2023-07-20T02:02:05;5.00;;;1.98;;
46282;SDS011;32017;43.700;11.820;2023-07-20T02:04:25;6.88;;;2.13;;
46282;SDS011;32017;43.700;11.820;2023-07-20T02:06:45;5.15;;;1.75;;
46282;SDS011;32017;43.700;11.820;2023-07-20T02:09:05;3.55;;;2.38;;
46282;SDS011;32017;43.700;11.820;2023-07-20T02:11:26;8.25;;;2.55;;
46282;SDS011;32017;43.700;11.820;2023-07-20T02:13:46;9.27;;;2.33;;
46282;SDS011;32017;43.700;11.820;2023-07-20T02:16:06;5.30;;;2.83;;
46282;SDS011;32017;43.700;11.820;2023-07-20T02:18:26;5.68;;;2.55;;
46282;SDS011;32017;43.700;11.820;2023-07-20T02:20:47;5.60;;;2.47;;
46282;SDS011;32017;43.700;11.820;2023-07-20T02:23:07;3.17;;;2.13;;
46282;SDS011;32017;43.700;11.820;2023-07-20T02:25:27;7.90;;;2.08;;
46282;SDS011;32017;43.700;11.820;2023-07-20T02:27:47;3.38;;;1.77;;
46282;SDS011;32017;43.700;11.820;2023-07-20T02:30:07;6.97;;;1.70;;
46282;SDS011;32017;43.700;11.820;2023-07-20T02:32:29;5.88;;;2.95;;
46282;SDS011;32017;43.700;11.820;2023-07-20T02:34:50;3.90;;;2.17;;
46282;SDS011;32017;43.700;11.820;2023-07-20T02:37:10;4.25;;;2.00;;
46282;SDS011;32017;43.700;11.820;2023-07-20T02:39:32;5.32;;;2.28;;
46282;SDS011;32017;43.700;11.820;2023-07-20T02:41:52;9.15;;;2.78;;
46282;SDS011;32017;43.700;11.820;2023-07-20T02:44:12;8.07;;;3.35;;
46282;SDS011;32017;43.700;11.820;2023-07-20T02:46:33;6.80;;;2.08;;
46282;SDS011;32017;43.700;11.820;2023-07-20T02:48:54;7.03;;;2.53;;
46282;SDS011;32017;43.700;11.820;2023-07-20T02:51:14;5.43;;;2.45;;
46282;SDS011;32017;43.700;11.820;2023-07-20T02:53:34;3.45;;;3.10;;
46282;SDS011;32017;43.700;11.820;2023-07-20T02:55:55;5.85;;;2.92;;
46282;SDS011;32017;43.700;11.820;2023-07-20T02:58:15;4.00;;;2.22;;
46282;SDS011;32017;43.700;11.820;2023-07-20T03:00:35;4.25;;;2.70;;
46282;SDS011;32017;43.700;11.820;2023-07-20T03:02:55;3.42;;;2.55;;
46282;SDS011;32017;43.700;11.820;2023-07-20T03:05:15;4.30;;;2.13;;
46282;SDS011;32017;43.700;11.820;2023-07-20T03:07:35;5.65;;;2.85;;
46282;SDS011;32017;43.700;11.820;2023-07-20T03:09:55;4.97;;;3.30;;
46282;SDS011;32017;43.700;11.820;2023-07-20T03:12:16;5.32;;;2.47;;
46282;SDS011;32017;43.700;11.820;2023-07-20T03:14:36;7.55;;;3.05;;
46282;SDS011;32017;43.700;11.820;2023-07-20T03:16:56;3.25;;;2.63;;
46282;SDS011;32017;43.700;11.820;2023-07-20T03:19:16;11.75;;;3.13;;
46282;SDS011;32017;43.700;11.820;2023-07-20T03:21:37;5.30;;;3.80;;
46282;SDS011;32017;43.700;11.820;2023-07-20T03:24:00;7.70;;;2.35;;
46282;SDS011;32017;43.700;11.820;2023-07-20T03:26:20;7.28;;;2.78;;
46282;SDS011;32017;43.700;11.820;2023-07-20T03:28:40;6.85;;;3.55;;
46282;SDS011;32017;43.700;11.820;2023-07-20T03:31:00;3.97;;;2.28;;
46282;SDS011;32017;43.700;11.820;2023-07-20T03:33:27;10.68;;;2.83;;
46282;SDS011;32017;43.700;11.820;2023-07-20T03:35:48;6.20;;;2.22;;
46282;SDS011;32017;43.700;11.820;2023-07-20T03:38:08;3.55;;;2.50;;
46282;SDS011;32017;43.700;11.820;2023-07-20T03:40:28;5.57;;;2.75;;
46282;SDS011;32017;43.700;11.820;2023-07-20T03:42:48;7.55;;;3.03;;
46282;SDS011;32017;43.700;11.820;2023-07-20T03:45:08;7.85;;;2.60;;
46282;SDS011;32017;43.700;11.820;2023-07-20T03:47:29;5.30;;;3.15;;
46282;SDS011;32017;43.700;11.820;2023-07-20T03:49:49;9.23;;;3.72;;
46282;SDS011;32017;43.700;11.820;2023-07-20T03:52:09;8.38;;;2.83;;
46282;SDS011;32017;43.700;11.820;2023-07-20T03:54:29;6.25;;;2.75;;
46282;SDS011;32017;43.700;11.820;2023-07-20T03:56:49;5.13;;;2.22;;
46282;SDS011;32017;43.700;11.820;2023-07-20T03:59:09;6.63;;;2.85;;
46282;SDS011;32017;43.700;11.820;2023-07-20T04:01:29;5.80;;;2.85;;
46282;SDS011;32017;43.700;11.820;2023-07-20T04:03:49;9.57;;;2.30;;
46282;SDS011;32017;43.700;11.820;2023-07-20T04:06:09;4.60;;;2.70;;
46282;SDS011;32017;43.700;11.820;2023-07-20T04:08:30;3.72;;;2.50;;
46282;SDS011;32017;43.700;11.820;2023-07-20T04:10:50;3.75;;;2.45;;
46282;SDS011;32017;43.700;11.820;2023-07-20T04:13:10;7.72;;;3.25;;
46282;SDS011;32017;43.700;11.820;2023-07-20T04:15:31;5.72;;;3.20;;
46282;SDS011;32017;43.700;11.820;2023-07-20T04:17:51;5.00;;;2.97;;
46282;SDS011;32017;43.700;11.820;2023-07-20T04:20:11;2.83;;;2.72;;
46282;SDS011;32017;43.700;11.820;2023-07-20T04:22:31;3.67;;;3.22;;
46282;SDS011;32017;43.700;11.820;2023-07-20T04:24:51;5.28;;;3.58;;
46282;SDS011;32017;43.700;11.820;2023-07-20T04:27:11;4.40;;;2.65;;
46282;SDS011;32017;43.700;11.820;2023-07-20T04:29:31;6.55;;;3.33;;
46282;SDS011;32017;43.700;11.820;2023-07-20T04:31:51;5.13;;;3.55;;
46282;SDS011;32017;43.700;11.820;2023-07-20T04:34:12;4.68;;;2.85;;
46282;SDS011;32017;43.700;11.820;2023-07-20T04:36:32;5.78;;;2.83;;
46282;SDS011;32017;43.700;11.820;2023-07-20T04:38:52;16.10;;;4.10;;
46282;SDS011;32017;43.700;11.820;2023-07-20T04:41:12;4.53;;;2.50;;
46282;SDS011;32017;43.700;11.820;2023-07-20T04:43:32;4.95;;;2.97;;
46282;SDS011;32017;43.700;11.820;2023-07-20T04:45:52;9.00;;;3.40;;
46282;SDS011;32017;43.700;11.820;2023-07-20T04:48:13;4.53;;;3.67;;
46282;SDS011;32017;43.700;11.820;2023-07-20T04:50:35;5.55;;;3.28;;
46282;SDS011;32017;43.700;11.820;2023-07-20T04:52:55;4.82;;;3.45;;
46282;SDS011;32017;43.700;11.820;2023-07-20T04:55:15;6.10;;;2.95;;
46282;SDS011;32017;43.700;11.820;2023-07-20T04:57:36;4.82;;;2.88;;
46282;SDS011;32017;43.700;11.820;2023-07-20T04:59:55;9.43;;;3.53;;
46282;SDS011;32017;43.700;11.820;2023-07-20T05:02:15;4.88;;;3.30;;
46282;SDS011;32017;43.700;11.820;2023-07-20T05:04:35;6.03;;;2.90;;
46282;SDS011;32017;43.700;11.820;2023-07-20T05:09:18;18.52;;;2.97;;
46282;SDS011;32017;43.700;11.820;2023-07-20T05:11:38;7.82;;;3.15;;
46282;SDS011;32017;43.700;11.820;2023-07-20T05:13:58;5.80;;;3.20;;
46282;SDS011;32017;43.700;11.820;2023-07-20T05:16:18;10.85;;;4.18;;
46282;SDS011;32017;43.700;11.820;2023-07-20T05:18:38;9.52;;;2.78;;
46282;SDS011;32017;43.700;11.820;2023-07-20T05:20:58;6.78;;;3.38;;
46282;SDS011;32017;43.700;11.820;2023-07-20T05:23:18;9.38;;;4.35;;
46282;SDS011;32017;43.700;11.820;2023-07-20T05:25:41;8.80;;;2.83;;
46282;SDS011;32017;43.700;11.820;2023-07-20T05:28:02;10.90;;;3.50;;
46282;SDS011;32017;43.700;11.820;2023-07-20T05:30:22;13.32;;;3.38;;
46282;SDS011;32017;43.700;11.820;2023-07-20T05:32:42;10.73;;;3.47;;
46282;SDS011;32017;43.700;11.820;2023-07-20T05:35:04;3.97;;;2.80;;
46282;SDS011;32017;43.700;11.820;2023-07-20T05:37:25;10.93;;;2.63;;
46282;SDS011;32017;43.700;11.820;2023-07-20T05:39:45;3.75;;;2.97;;
46282;SDS011;32017;43.700;11.820;2023-07-20T05:42:05;9.38;;;3.05;;
46282;SDS011;32017;43.700;11.820;2023-07-20T05:44:26;4.97;;;2.45;;
46282;SDS011;32017;43.700;11.820;2023-07-20T05:46:46;8.45;;;3.28;;
46282;SDS011;32017;43.700;11.820;2023-07-20T05:49:17;4.93;;;2.45;;
46282;SDS011;32017;43.700;11.820;2023-07-20T05:51:37;7.43;;;2.58;;
46282;SDS011;32017;43.700;11.820;2023-07-20T05:53:57;10.75;;;3.28;;
46282;SDS011;32017;43.700;11.820;2023-07-20T05:56:17;4.63;;;2.72;;
46282;SDS011;32017;43.700;11.820;2023-07-20T05:58:37;7.15;;;3.03;;
46282;SDS011;32017;43.700;11.820;2023-07-20T06:00:57;2.42;;;2.00;;
46282;SDS011;32017;43.700;11.820;2023-07-20T06:03:17;3.92;;;3.30;;
46282;SDS011;32017;43.700;11.820;2023-07-20T06:05:38;5.45;;;2.60;;
46282;SDS011;32017;43.700;11.820;2023-07-20T06:07:58;7.45;;;3.35;;
46282;SDS011;32017;43.700;11.820;2023-07-20T06:10:19;6.93;;;2.47;;
46282;SDS011;32017;43.700;11.820;2023-07-20T06:12:39;7.22;;;3.00;;
46282;SDS011;32017;43.700;11.820;2023-07-20T06:15:03;9.82;;;3.08;;
46282;SDS011;32017;43.700;11.820;2023-07-20T06:17:24;5.63;;;2.72;;
46282;SDS011;32017;43.700;11.820;2023-07-20T06:19:44;15.13;;;2.97;;
46282;SDS011;32017;43.700;11.820;2023-07-20T06:22:04;5.43;;;2.10;;
46282;SDS011;32017;43.700;11.820;2023-07-20T06:24:24;5.68;;;2.70;;
46282;SDS011;32017;43.700;11.820;2023-07-20T06:26:44;7.90;;;3.15;;
46282;SDS011;32017;43.700;11.820;2023-07-20T06:29:04;4.78;;;3.00;;
46282;SDS011;32017;43.700;11.820;2023-07-20T06:31:31;5.63;;;2.35;;
46282;SDS011;32017;43.700;11.820;2023-07-20T06:33:53;6.17;;;3.43;;
46282;SDS011;32017;43.700;11.820;2023-07-20T06:36:16;5.00;;;1.80;;
46282;SDS011;32017;43.700;11.820;2023-07-20T06:38:37;4.25;;;1.88;;
46282;SDS011;32017;43.700;11.820;2023-07-20T06:40:57;6.90;;;2.42;;
46282;SDS011;32017;43.700;11.820;2023-07-20T06:43:37;6.32;;;3.00;;
46282;SDS011;32017;43.700;11.820;2023-07-20T06:48:20;6.05;;;2.17;;
46282;SDS011;32017;43.700;11.820;2023-07-20T06:50:40;9.82;;;2.90;;
46282;SDS011;32017;43.700;11.820;2023-07-20T06:53:02;7.05;;;1.80;;
46282;SDS011;32017;43.700;11.820;2023-07-20T06:55:25;8.75;;;3.15;;
46282;SDS011;32017;43.700;11.820;2023-07-20T06:57:45;2.75;;;2.10;;
46282;SDS011;32017;43.700;11.820;2023-07-20T07:02:28;7.78;;;2.72;;
46282;SDS011;32017;43.700;11.820;2023-07-20T07:04:48;8.45;;;2.13;;
46282;SDS011;32017;43.700;11.820;2023-07-20T07:07:08;5.68;;;3.25;;
46282;SDS011;32017;43.700;11.820;2023-07-20T07:09:29;9.05;;;2.22;;
46282;SDS011;32017;43.700;11.820;2023-07-20T07:11:49;5.80;;;1.95;;
46282;SDS011;32017;43.700;11.820;2023-07-20T07:14:09;13.70;;;2.40;;
46282;SDS011;32017;43.700;11.820;2023-07-20T07:16:29;4.63;;;1.90;;
46282;SDS011;32017;43.700;11.820;2023-07-20T07:18:50;4.50;;;1.70;;
46282;SDS011;32017;43.700;11.820;2023-07-20T07:21:10;9.15;;;2.63;;
46282;SDS011;32017;43.700;11.820;2023-07-20T07:23:31;11.23;;;3.58;;
46282;SDS011;32017;43.700;11.820;2023-07-20T07:25:51;5.07;;;1.25;;
46282;SDS011;32017;43.700;11.820;2023-07-20T07:28:11;11.85;;;3.42;;
46282;SDS011;32017;43.700;11.820;2023-07-20T07:30:31;7.88;;;3.35;;
46282;SDS011;32017;43.700;11.820;2023-07-20T07:35:13;8.07;;;2.70;;
46282;SDS011;32017;43.700;11.820;2023-07-20T07:37:33;9.30;;;2.17;;
46282;SDS011;32017;43.700;11.820;2023-07-20T07:40:06;10.85;;;2.55;;
46282;SDS011;32017;43.700;11.820;2023-07-20T07:42:28;5.80;;;1.80;;
46282;SDS011;32017;43.700;11.820;2023-07-20T07:44:48;6.57;;;2.63;;
46282;SDS011;32017;43.700;11.820;2023-07-20T07:47:09;7.97;;;2.83;;
46282;SDS011;32017;43.700;11.820;2023-07-20T07:49:29;6.68;;;1.73;;
46282;SDS011;32017;43.700;11.820;2023-07-20T07:51:51;8.77;;;1.40;;
46282;SDS011;32017;43.700;11.820;2023-07-20T07:54:11;7.43;;;2.15;;
46282;SDS011;32017;43.700;11.820;2023-07-20T07:56:31;9.70;;;2.10;;
46282;SDS011;32017;43.700;11.820;2023-07-20T07:58:51;3.42;;;1.60;;
46282;SDS011;32017;43.700;11.820;2023-07-20T08:01:11;7.90;;;2.28;;
46282;SDS011;32017;43.700;11.820;2023-07-20T08:03:32;8.82;;;2.13;;
46282;SDS011;32017;43.700;11.820;2023-07-20T08:05:55;8.05;;;2.03;;
46282;SDS011;32017;43.700;11.820;2023-07-20T08:08:15;2.55;;;1.85;;
46282;SDS011;32017;43.700;11.820;2023-07-20T08:10:36;9.15;;;2.20;;
46282;SDS011;32017;43.700;11.820;2023-07-20T08:12:56;5.30;;;1.73;;
46282;SDS011;32017;43.700;11.820;2023-07-20T08:15:16;8.02;;;2.20;;
46282;SDS011;32017;43.700;11.820;2023-07-20T08:17:37;9.57;;;2.42;;
46282;SDS011;32017;43.700;11.820;2023-07-20T08:19:58;9.60;;;1.88;;
46282;SDS011;32017;43.700;11.820;2023-07-20T08:22:18;6.13;;;2.38;;
46282;SDS011;32017;43.700;11.820;2023-07-20T08:24:39;7.50;;;1.83;;
46282;SDS011;32017;43.700;11.820;2023-07-20T08:27:00;8.57;;;1.85;;
46282;SDS011;32017;43.700;11.820;2023-07-20T08:29:19;6.50;;;2.05;;
46282;SDS011;32017;43.700;11.820;2023-07-20T08:31:39;6.10;;;1.52;;
46282;SDS011;32017;43.700;11.820;2023-07-20T08:34:00;7.88;;;1.88;;
46282;SDS011;32017;43.700;11.820;2023-07-20T08:36:21;6.78;;;2.28;;
46282;SDS011;32017;43.700;11.820;2023-07-20T08:38:41;8.75;;;2.35;;
46282;SDS011;32017;43.700;11.820;2023-07-20T08:41:01;13.90;;;2.22;;
46282;SDS011;32017;43.700;11.820;2023-07-20T08:43:22;8.63;;;1.60;;
46282;SDS011;32017;43.700;11.820;2023-07-20T08:45:45;8.82;;;1.95;;
46282;SDS011;32017;43.700;11.820;2023-07-20T08:48:08;9.27;;;2.22;;
46282;SDS011;32017;43.700;11.820;2023-07-20T08:50:30;5.00;;;2.17;;
46282;SDS011;32017;43.700;11.820;2023-07-20T08:52:50;9.38;;;2.65;;
46282;SDS011;32017;43.700;11.820;2023-07-20T08:55:13;9.93;;;2.35;;
46282;SDS011;32017;43.700;11.820;2023-07-20T08:57:33;10.32;;;2.60;;
46282;SDS011;32017;43.700;11.820;2023-07-20T08:59:54;7.25;;;1.52;;
46282;SDS011;32017;43.700;11.820;2023-07-20T09:02:15;10.45;;;1.60;;
46282;SDS011;32017;43.700;11.820;2023-07-20T09:04:38;7.18;;;1.95;;
46282;SDS011;32017;43.700;11.820;2023-07-20T09:06:58;5.65;;;1.73;;
46282;SDS011;32017;43.700;11.820;2023-07-20T09:09:19;8.05;;;1.73;;
46282;SDS011;32017;43.700;11.820;2023-07-20T09:11:40;4.10;;;1.75;;
46282;SDS011;32017;43.700;11.820;2023-07-20T09:14:07;6.00;;;1.63;;
46282;SDS011;32017;43.700;11.820;2023-07-20T09:16:28;5.60;;;1.58;;
46282;SDS011;32017;43.700;11.820;2023-07-20T09:18:50;4.07;;;1.85;;
46282;SDS011;32017;43.700;11.820;2023-07-20T09:21:10;6.35;;;1.30;;
46282;SDS011;32017;43.700;11.820;2023-07-20T09:23:32;5.70;;;2.40;;
46282;SDS011;32017;43.700;11.820;2023-07-20T09:25:53;6.47;;;1.67;;
46282;SDS011;32017;43.700;11.820;2023-07-20T09:28:13;6.10;;;1.50;;
46282;SDS011;32017;43.700;11.820;2023-07-20T09:30:33;4.65;;;1.85;;
46282;SDS011;32017;43.700;11.820;2023-07-20T09:32:54;5.63;;;2.42;;
46282;SDS011;32017;43.700;11.820;2023-07-20T09:35:15;6.90;;;2.35;;
46282;SDS011;32017;43.700;11.820;2023-07-20T09:37:39;4.03;;;1.58;;
46282;SDS011;32017;43.700;11.820;2023-07-20T09:39:59;7.00;;;1.50;;
46282;SDS011;32017;43.700;11.820;2023-07-20T09:42:21;5.88;;;1.55;;
46282;SDS011;32017;43.700;11.820;2023-07-20T09:44:47;5.03;;;2.13;;
46282;SDS011;32017;43.700;11.820;2023-07-20T09:47:08;3.15;;;1.45;;
46282;SDS011;32017;43.700;11.820;2023-07-20T09:49:29;6.50;;;2.53;;
46282;SDS011;32017;43.700;11.820;2023-07-20T09:51:50;7.07;;;1.58;;
46282;SDS011;32017;43.700;11.820;2023-07-20T09:54:13;2.88;;;2.00;;
46282;SDS011;32017;43.700;11.820;2023-07-20T09:56:34;7.40;;;2.20;;
46282;SDS011;32017;43.700;11.820;2023-07-20T09:58:56;6.85;;;2.20;;
46282;SDS011;32017;43.700;11.820;2023-07-20T10:01:17;2.05;;;1.33;;
46282;SDS011;32017;43.700;11.820;2023-07-20T10:03:45;4.38;;;2.03;;
46282;SDS011;32017;43.700;11.820;2023-07-20T10:06:06;7.70;;;1.87;;
46282;SDS011;32017;43.700;11.820;2023-07-20T10:08:29;3.70;;;1.90;;
46282;SDS011;32017;43.700;11.820;2023-07-20T10:10:54;4.20;;;1.27;;
46282;SDS011;32017;43.700;11.820;2023-07-20T10:13:16;4.57;;;1.80;;
46282;SDS011;32017;43.700;11.820;2023-07-20T10:15:41;2.50;;;1.25;;
46282;SDS011;32017;43.700;11.820;2023-07-20T10:18:12;2.22;;;1.10;;
46282;SDS011;32017;43.700;11.820;2023-07-20T10:20:43;2.38;;;1.83;;
46282;SDS011;32017;43.700;11.820;2023-07-20T10:23:08;6.22;;;1.50;;
46282;SDS011;32017;43.700;11.820;2023-07-20T10:25:29;4.28;;;1.75;;
46282;SDS011;32017;43.700;11.820;2023-07-20T10:27:50;3.93;;;1.60;;
46282;SDS011;32017;43.700;11.820;2023-07-20T10:30:10;6.82;;;1.52;;
46282;SDS011;32017;43.700;11.820;2023-07-20T10:32:31;7.82;;;2.97;;
46282;SDS011;32017;43.700;11.820;2023-07-20T10:34:52;8.15;;;2.83;;
46282;SDS011;32017;43.700;11.820;2023-07-20T10:37:45;6.75;;;1.33;;
46282;SDS011;32017;43.700;11.820;2023-07-20T10:40:26;4.22;;;1.63;;
46282;SDS011;32017;43.700;11.820;2023-07-20T10:42:47;4.90;;;1.40;;
46282;SDS011;32017;43.700;11.820;2023-07-20T10:45:07;9.75;;;1.75;;
46282;SDS011;32017;43.700;11.820;2023-07-20T10:47:27;6.22;;;1.98;;
46282;SDS011;32017;43.700;11.820;2023-07-20T10:49:57;3.60;;;1.52;;
46282;SDS011;32017;43.700;11.820;2023-07-20T10:52:19;6.28;;;1.88;;
46282;SDS011;32017;43.700;11.820;2023-07-20T10:54:48;6.50;;;1.75;;
46282;SDS011;32017;43.700;11.820;2023-07-20T10:57:27;5.97;;;1.42;;
46282;SDS011;32017;43.700;11.820;2023-07-20T10:59:49;8.25;;;1.80;;
46282;SDS011;32017;43.700;11.820;2023-07-20T11:02:09;5.32;;;1.92;;
46282;SDS011;32017;43.700;11.820;2023-07-20T11:04:39;5.85;;;1.50;;
46282;SDS011;32017;43.700;11.820;2023-07-20T11:07:03;6.05;;;1.63;;
46282;SDS011;32017;43.700;11.820;2023-07-20T11:09:24;5.90;;;2.03;;
46282;SDS011;32017;43.700;11.820;2023-07-20T11:11:46;8.07;;;1.50;;
46282;SDS011;32017;43.700;11.820;2023-07-20T11:14:08;6.32;;;1.48;;
46282;SDS011;32017;43.700;11.820;2023-07-20T11:16:46;6.60;;;2.80;;
46282;SDS011;32017;43.700;11.820;2023-07-20T11:19:20;7.47;;;1.52;;
46282;SDS011;32017;43.700;11.820;2023-07-20T11:21:47;4.10;;;1.80;;
46282;SDS011;32017;43.700;11.820;2023-07-20T11:24:22;5.40;;;1.40;;
46282;SDS011;32017;43.700;11.820;2023-07-20T11:26:43;3.92;;;1.52;;
46282;SDS011;32017;43.700;11.820;2023-07-20T11:31:30;5.30;;;1.42;;
46282;SDS011;32017;43.700;11.820;2023-07-20T11:33:54;7.53;;;2.20;;
46282;SDS011;32017;43.700;11.820;2023-07-20T11:36:14;5.53;;;1.00;;
46282;SDS011;32017;43.700;11.820;2023-07-20T11:38:38;8.43;;;1.80;;
46282;SDS011;32017;43.700;11.820;2023-07-20T11:41:05;6.82;;;1.10;;
46282;SDS011;32017;43.700;11.820;2023-07-20T11:43:25;6.88;;;1.13;;
46282;SDS011;32017;43.700;11.820;2023-07-20T11:45:45;5.63;;;1.35;;
46282;SDS011;32017;43.700;11.820;2023-07-20T11:48:05;5.55;;;1.20;;
46282;SDS011;32017;43.700;11.820;2023-07-20T11:50:25;4.97;;;1.25;;
46282;SDS011;32017;43.700;11.820;2023-07-20T11:52:45;7.65;;;1.70;;
46282;SDS011;32017;43.700;11.820;2023-07-20T11:55:06;3.45;;;1.00;;
46282;SDS011;32017;43.700;11.820;2023-07-20T11:57:26;4.82;;;1.90;;
46282;SDS011;32017;43.700;11.820;2023-07-20T11:59:56;6.13;;;1.45;;
46282;SDS011;32017;43.700;11.820;2023-07-20T12:02:18;3.80;;;1.15;;
46282;SDS011;32017;43.700;11.820;2023-07-20T12:04:38;3.55;;;1.10;;
46282;SDS011;32017;43.700;11.820;2023-07-20T12:06:58;3.25;;;1.10;;
46282;SDS011;32017;43.700;11.820;2023-07-20T12:09:19;3.97;;;1.35;;
46282;SDS011;32017;43.700;11.820;2023-07-20T12:11:39;4.72;;;1.30;;
46282;SDS011;32017;43.700;11.820;2023-07-20T12:13:59;3.00;;;1.58;;
46282;SDS011;32017;43.700;11.820;2023-07-20T12:16:36;5.75;;;1.40;;
46282;SDS011;32017;43.700;11.820;2023-07-20T12:19:00;3.13;;;1.30;;
46282;SDS011;32017;43.700;11.820;2023-07-20T12:21:31;7.97;;;1.33;;
46282;SDS011;32017;43.700;11.820;2023-07-20T12:23:56;4.28;;;1.17;;
46282;SDS011;32017;43.700;11.820;2023-07-20T12:26:19;1.88;;;1.08;;
46282;SDS011;32017;43.700;11.820;2023-07-20T12:28:42;3.28;;;1.00;;
46282;SDS011;32017;43.700;11.820;2023-07-20T12:31:02;6.25;;;1.30;;
46282;SDS011;32017;43.700;11.820;2023-07-20T12:33:22;6.22;;;1.73;;
46282;SDS011;32017;43.700;11.820;2023-07-20T12:35:42;4.68;;;1.33;;
46282;SDS011;32017;43.700;11.820;2023-07-20T12:38:05;7.97;;;1.48;;
46282;SDS011;32017;43.700;11.820;2023-07-20T12:40:25;7.97;;;1.40;;
46282;SDS011;32017;43.700;11.820;2023-07-20T12:42:45;2.95;;;1.23;;
46282;SDS011;32017;43.700;11.820;2023-07-20T12:45:07;6.50;;;1.40;;
46282;SDS011;32017;43.700;11.820;2023-07-20T12:47:28;5.03;;;1.00;;
46282;SDS011;32017;43.700;11.820;2023-07-20T12:49:48;4.55;;;1.50;;
46282;SDS011;32017;43.700;11.820;2023-07-20T12:52:08;3.33;;;0.85;;
46282;SDS011;32017;43.700;11.820;2023-07-20T12:54:28;3.03;;;0.80;;
46282;SDS011;32017;43.700;11.820;2023-07-20T12:56:50;3.03;;;0.93;;
46282;SDS011;32017;43.700;11.820;2023-07-20T12:59:13;3.58;;;1.45;;
46282;SDS011;32017;43.700;11.820;2023-07-20T13:01:33;2.50;;;1.05;;
46282;SDS011;32017;43.700;11.820;2023-07-20T13:03:53;3.50;;;1.38;;
46282;SDS011;32017;43.700;11.820;2023-07-20T13:06:16;5.85;;;1.08;;
46282;SDS011;32017;43.700;11.820;2023-07-20T13:08:39;2.38;;;0.90;;
46282;SDS011;32017;43.700;11.820;2023-07-20T13:10:59;5.93;;;1.10;;
46282;SDS011;32017;43.700;11.820;2023-07-20T13:13:20;2.10;;;0.90;;
46282;SDS011;32017;43.700;11.820;2023-07-20T13:15:41;4.35;;;0.80;;
46282;SDS011;32017;43.700;11.820;2023-07-20T13:18:02;3.47;;;0.80;;
46282;SDS011;32017;43.700;11.820;2023-07-20T13:20:23;3.45;;;0.95;;
46282;SDS011;32017;43.700;11.820;2023-07-20T13:22:43;4.45;;;0.80;;
46282;SDS011;32017;43.700;11.820;2023-07-20T13:25:03;2.40;;;0.80;;
46282;SDS011;32017;43.700;11.820;2023-07-20T13:27:25;9.13;;;1.30;;
46282;SDS011;32017;43.700;11.820;2023-07-20T13:29:45;2.85;;;0.90;;
46282;SDS011;32017;43.700;11.820;2023-07-20T13:32:07;3.03;;;0.95;;
46282;SDS011;32017;43.700;11.820;2023-07-20T13:34:28;5.85;;;0.80;;
46282;SDS011;32017;43.700;11.820;2023-07-20T13:36:51;2.28;;;0.80;;
46282;SDS011;32017;43.700;11.820;2023-07-20T13:39:12;4.45;;;1.00;;
46282;SDS011;32017;43.700;11.820;2023-07-20T13:41:32;4.53;;;0.80;;
46282;SDS011;32017;43.700;11.820;2023-07-20T13:43:54;1.80;;;0.80;;
46282;SDS011;32017;43.700;11.820;2023-07-20T13:46:17;9.80;;;0.95;;
46282;SDS011;32017;43.700;11.820;2023-07-20T13:48:57;6.93;;;0.73;;
46282;SDS011;32017;43.700;11.820;2023-07-20T13:51:17;2.13;;;0.95;;
46282;SDS011;32017;43.700;11.820;2023-07-20T13:53:47;5.47;;;0.80;;
46282;SDS011;32017;43.700;11.820;2023-07-20T13:56:10;4.55;;;1.00;;
46282;SDS011;32017;43.700;11.820;2023-07-20T13:58:32;4.30;;;0.70;;
46282;SDS011;32017;43.700;11.820;2023-07-20T14:00:53;4.35;;;0.90;;
46282;SDS011;32017;43.700;11.820;2023-07-20T14:03:14;5.57;;;0.90;;
46282;SDS011;32017;43.700;11.820;2023-07-20T14:05:37;3.45;;;0.80;;
46282;SDS011;32017;43.700;11.820;2023-07-20T14:08:00;5.80;;;1.13;;
46282;SDS011;32017;43.700;11.820;2023-07-20T14:10:20;4.75;;;0.85;;
46282;SDS011;32017;43.700;11.820;2023-07-20T14:12:40;3.38;;;0.80;;
46282;SDS011;32017;43.700;11.820;2023-07-20T14:15:01;2.72;;;0.82;;
46282;SDS011;32017;43.700;11.820;2023-07-20T14:17:21;2.05;;;0.90;;
46282;SDS011;32017;43.700;11.820;2023-07-20T14:19:41;3.45;;;0.80;;
46282;SDS011;32017;43.700;11.820;2023-07-20T14:22:02;2.45;;;0.80;;
46282;SDS011;32017;43.700;11.820;2023-07-20T14:24:23;2.88;;;0.90;;